Time;durP1;ratioP1;P1;durP2;ratioP2;P2;SDS_P1;SDS_P2;PMS_P1;PMS_P2;Temp;Humidity;BMP_temperature;BMP_pressure;BME280_temperature;BME280_humidity;BME280_pressure;Samples;Min_cycle;Max_cycle;Signal;HPM_P1;HPM_P2
2022/05/25 00:02:19;;;;;;;4.22;2.25;;;18.50;68.10;;;;;;5090543;28;20028;-79
2022/05/25 00:04:48;;;;;;;2.45;2.10;;;18.50;68.30;;;;;;5102047;28;20107;-74
2022/05/25 00:07:15;;;;;;;6.50;3.63;;;18.50;68.30;;;;;;5105437;28;20040;-75
2022/05/25 00:09:41;;;;;;;4.80;3.22;;;18.50;68.50;;;;;;5081679;28;20059;-76
2022/05/25 00:12:10;;;;;;;3.30;2.78;;;18.50;68.30;;;;;;5106953;28;20024;-76
2022/05/25 00:14:36;;;;;;;2.78;2.40;;;18.50;68.30;;;;;;5104975;28;20027;-75
2022/05/25 00:17:06;;;;;;;3.58;2.17;;;18.50;68.40;;;;;;5093291;28;20025;-74
2022/05/25 00:22:16;;;;;;;;;;;18.50;68.20;;;;;;5098540;28;20022;-76
2022/05/25 00:24:42;;;;;;;3.65;3.00;;;18.60;67.80;;;;;;5104004;28;20318;-74
2022/05/25 00:27:10;;;;;;;4.75;4.07;;;18.60;68.00;;;;;;5105409;28;20053;-73
2022/05/25 00:29:38;;;;;;;14.13;8.23;;;18.60;68.10;;;;;;5095933;28;20036;-77
2022/05/25 00:32:08;;;;;;;12.65;6.78;;;18.60;68.10;;;;;;5125778;27;20024;-71
2022/05/25 00:34:34;;;;;;;5.25;3.92;;;18.60;68.20;;;;;;5097138;28;20041;-74
2022/05/25 00:37:00;;;;;;;4.32;3.72;;;18.60;68.20;;;;;;5101867;28;20020;-73
2022/05/25 00:39:29;;;;;;;4.90;4.03;;;18.60;68.00;;;;;;5108577;28;20023;-73
2022/05/25 00:41:55;;;;;;;3.90;3.10;;;18.50;67.80;;;;;;5094878;28;20020;-73
2022/05/25 00:44:29;;;;;;;3.38;2.85;;;18.60;67.80;;;;;;5093380;28;20024;-74
2022/05/25 00:46:57;;;;;;;11.20;4.18;;;18.50;67.80;;;;;;5103704;28;20019;-74
2022/05/25 00:49:39;;;;;;;4.45;3.90;;;18.60;67.90;;;;;;5082976;28;20086;-75
2022/05/25 00:52:10;;;;;;;4.28;3.30;;;18.60;68.00;;;;;;5082133;28;20027;-73
2022/05/25 00:54:45;;;;;;;4.38;3.17;;;18.60;67.80;;;;;;5104577;28;20387;-74
2022/05/25 00:57:16;;;;;;;5.25;3.20;;;18.60;67.90;;;;;;5093483;28;20108;-76
2022/05/25 00:59:56;;;;;;;4.40;2.95;;;18.60;67.70;;;;;;5094585;28;20024;-76
2022/05/25 01:02:31;;;;;;;4.25;2.33;;;18.60;67.70;;;;;;5085504;28;20015;-74
2022/05/25 01:04:57;;;;;;;4.45;2.83;;;18.60;67.60;;;;;;5100607;28;20020;-75
2022/05/25 01:07:53;;;;;;;4.70;3.33;;;18.60;67.70;;;;;;5107063;28;20040;-77
2022/05/25 01:10:58;;;;;;;4.57;3.47;;;18.60;67.60;;;;;;5084600;28;20080;-72
2022/05/25 01:13:56;;;;;;;6.50;3.85;;;18.60;67.60;;;;;;5098122;28;20020;-72
2022/05/25 01:16:28;;;;;;;6.35;4.65;;;18.60;67.50;;;;;;5072267;28;20027;-71
2022/05/25 01:19:35;;;;;;;3.83;3.40;;;18.60;67.60;;;;;;5102064;28;20035;-71
2022/05/25 01:22:26;;;;;;;4.72;3.78;;;18.50;67.70;;;;;;4990946;28;20556;-73
2022/05/25 01:25:01;;;;;;;4.80;4.18;;;18.50;67.80;;;;;;4991339;28;20043;-74
2022/05/25 01:27:48;;;;;;;4.22;3.83;;;18.50;67.80;;;;;;4988524;28;20490;-74
2022/05/25 01:30:20;;;;;;;4.13;3.75;;;18.50;67.70;;;;;;4988601;28;20035;-74
2022/05/25 01:33:08;;;;;;;3.60;3.30;;;18.50;67.70;;;;;;4991977;28;20050;-74
2022/05/25 01:36:05;;;;;;;4.10;3.72;;;18.50;67.70;;;;;;4991228;28;20049;-74
2022/05/25 01:38:53;;;;;;;3.90;3.40;;;18.50;67.80;;;;;;4990856;28;20035;-73
2022/05/25 01:41:57;;;;;;;3.40;3.10;;;18.50;67.80;;;;;;4991055;28;20053;-74
2022/05/25 01:44:26;;;;;;;3.60;2.97;;;18.60;67.90;;;;;;4955221;28;20487;-73
2022/05/25 01:46:57;;;;;;;3.40;3.10;;;18.60;67.80;;;;;;4971482;28;20083;-74
2022/05/25 01:49:33;;;;;;;5.30;3.33;;;18.60;67.90;;;;;;4991020;28;20039;-74
2022/05/25 01:52:08;;;;;;;6.35;5.32;;;18.60;68.00;;;;;;4991252;28;20045;-73
2022/05/25 01:54:40;;;;;;;7.25;5.68;;;18.60;68.00;;;;;;4990909;28;20045;-74
2022/05/25 01:57:11;;;;;;;5.75;5.25;;;18.60;68.00;;;;;;5006014;28;20036;-74
2022/05/25 01:59:37;;;;;;;6.53;5.15;;;18.60;67.90;;;;;;5092037;28;20035;-74
2022/05/25 02:04:53;;;;;;;6.07;5.00;;;18.60;68.00;;;;;;5092865;28;20085;-73
2022/05/25 02:08:02;;;;;;;6.45;5.57;;;18.70;68.10;;;;;;5092219;28;20075;-73
2022/05/25 02:10:58;;;;;;;4.07;3.47;;;18.60;68.00;;;;;;5095067;28;20360;-74
2022/05/25 02:13:55;;;;;;;4.55;3.75;;;18.60;67.80;;;;;;5095303;28;20035;-73
2022/05/25 02:16:47;;;;;;;4.53;4.10;;;18.60;67.20;;;;;;5096282;28;20464;-73
2022/05/25 02:19:35;;;;;;;4.93;3.45;;;18.60;67.10;;;;;;5096204;28;20149;-74
2022/05/25 02:22:14;;;;;;;4.85;3.40;;;18.60;67.30;;;;;;5094833;28;20031;-73
2022/05/25 02:24:45;;;;;;;4.00;3.60;;;18.60;67.50;;;;;;5096481;28;20028;-75
2022/05/25 02:27:41;;;;;;;4.88;3.45;;;18.60;67.70;;;;;;5075468;28;20499;-74
2022/05/25 02:30:13;;;;;;;7.50;5.55;;;18.60;67.80;;;;;;5074617;28;20032;-74
2022/05/25 02:32:51;;;;;;;7.65;6.80;;;18.60;67.80;;;;;;5093541;28;20383;-73
2022/05/25 02:35:19;;;;;;;9.00;7.85;;;18.60;67.90;;;;;;5096243;28;20020;-74
2022/05/25 02:37:45;;;;;;;8.27;7.15;;;18.60;67.80;;;;;;5094713;28;20024;-75
2022/05/25 02:40:13;;;;;;;8.07;7.28;;;18.60;67.90;;;;;;5096500;28;20028;-75
2022/05/25 02:42:40;;;;;;;8.85;7.47;;;18.50;68.60;;;;;;5095885;28;20475;-74
2022/05/25 02:45:08;;;;;;;8.52;6.95;;;18.50;67.90;;;;;;5094805;28;20107;-74
2022/05/25 02:47:34;;;;;;;9.73;8.32;;;18.50;67.90;;;;;;5094739;28;20028;-74
2022/05/25 02:50:00;;;;;;;7.30;6.45;;;18.50;67.90;;;;;;5094695;28;20433;-74
2022/05/25 02:52:27;;;;;;;8.85;7.68;;;18.50;68.00;;;;;;5094707;28;20357;-74
2022/05/25 02:54:53;;;;;;;10.32;7.07;;;18.50;67.90;;;;;;5095503;28;20494;-74
2022/05/25 02:57:19;;;;;;;6.65;5.95;;;18.50;67.90;;;;;;5095635;28;20425;-75
2022/05/25 02:59:46;;;;;;;6.70;6.05;;;18.50;67.80;;;;;;5095576;28;20036;-75
2022/05/25 03:02:11;;;;;;;5.50;5.00;;;18.50;67.80;;;;;;5095745;28;20027;-74
2022/05/25 03:04:38;;;;;;;12.27;7.40;;;18.50;67.80;;;;;;5095731;28;20388;-74
2022/05/25 03:07:05;;;;;;;9.55;7.50;;;18.50;68.10;;;;;;5094004;28;20433;-74
2022/05/25 03:09:31;;;;;;;11.23;6.65;;;18.50;68.00;;;;;;5095657;28;20032;-74
2022/05/25 03:11:57;;;;;;;8.50;7.15;;;18.40;67.90;;;;;;5095768;28;20036;-75
2022/05/25 03:14:23;;;;;;;6.78;6.10;;;18.40;67.90;;;;;;5093983;28;20070;-75
2022/05/25 03:16:48;;;;;;;14.02;8.40;;;18.40;68.00;;;;;;5086677;28;20024;-75
2022/05/25 03:19:14;;;;;;;13.00;7.97;;;18.40;68.10;;;;;;5074817;28;20111;-75
2022/05/25 03:21:40;;;;;;;9.93;8.02;;;18.40;68.20;;;;;;5073879;28;20028;-74
2022/05/25 03:24:06;;;;;;;7.90;7.10;;;18.30;68.30;;;;;;5075094;28;20029;-75
2022/05/25 03:26:32;;;;;;;9.05;8.15;;;18.30;68.50;;;;;;5088652;28;20024;-75
2022/05/25 03:28:57;;;;;;;16.45;8.90;;;18.30;68.60;;;;;;5095202;28;20058;-76
2022/05/25 03:31:23;;;;;;;14.07;9.13;;;18.30;68.70;;;;;;5093767;28;20028;-76
2022/05/25 03:33:49;;;;;;;11.55;10.35;;;18.30;68.80;;;;;;5093813;28;20482;-75
2022/05/25 03:36:15;;;;;;;13.95;8.95;;;18.30;68.80;;;;;;5095412;28;20028;-75
2022/05/25 03:38:40;;;;;;;10.45;9.20;;;18.30;68.90;;;;;;5093759;28;20024;-76
2022/05/25 03:41:06;;;;;;;8.50;7.57;;;18.30;69.00;;;;;;5093217;28;20032;-76
2022/05/25 03:43:34;;;;;;;9.43;7.45;;;18.30;69.00;;;;;;5094963;28;20024;-76
2022/05/25 03:46:00;;;;;;;8.18;7.38;;;18.30;69.10;;;;;;5093485;28;20028;-75
2022/05/25 03:48:26;;;;;;;10.73;7.80;;;18.40;69.00;;;;;;5093389;28;20028;-76
2022/05/25 03:50:52;;;;;;;8.50;7.60;;;18.40;69.20;;;;;;5094393;28;20369;-76
2022/05/25 03:53:17;;;;;;;7.47;6.30;;;18.40;68.70;;;;;;5094931;28;20055;-75
2022/05/25 03:55:43;;;;;;;6.10;5.50;;;18.50;68.80;;;;;;5094596;28;20024;-75
2022/05/25 03:58:10;;;;;;;6.00;5.00;;;18.50;68.90;;;;;;5093248;28;20024;-76
2022/05/25 04:00:36;;;;;;;7.30;6.43;;;18.50;69.00;;;;;;5094585;28;20031;-77
2022/05/25 04:03:03;;;;;;;7.40;6.18;;;18.60;69.20;;;;;;5091881;28;20468;-76
2022/05/25 04:05:32;;;;;;;7.68;6.97;;;18.60;69.00;;;;;;5091724;28;20376;-75
2022/05/25 04:07:58;;;;;;;7.10;6.40;;;18.60;69.00;;;;;;5092550;28;20139;-75
2022/05/25 04:10:25;;;;;;;6.97;6.30;;;18.70;69.00;;;;;;5094195;28;20036;-76
2022/05/25 04:12:51;;;;;;;7.53;6.65;;;18.70;69.00;;;;;;5094056;28;20024;-75
2022/05/25 04:15:20;;;;;;;8.38;7.28;;;18.70;68.80;;;;;;5086037;28;20029;-75
2022/05/25 04:17:46;;;;;;;7.28;6.57;;;18.80;68.70;;;;;;5073655;28;20028;-76
2022/05/25 04:20:13;;;;;;;7.88;6.50;;;18.70;68.50;;;;;;5073600;28;20461;-77
2022/05/25 04:22:39;;;;;;;5.63;5.03;;;18.80;68.60;;;;;;5072258;28;20031;-75
2022/05/25 04:25:07;;;;;;;5.57;4.97;;;18.80;68.80;;;;;;5073848;28;20025;-74
2022/05/25 04:27:34;;;;;;;6.05;5.45;;;18.80;68.80;;;;;;5072596;28;20380;-75
2022/05/25 04:30:00;;;;;;;6.35;5.50;;;18.90;69.00;;;;;;5072591;28;20036;-74
2022/05/25 04:32:26;;;;;;;5.78;5.25;;;18.90;68.80;;;;;;5072490;28;20021;-72
2022/05/25 04:34:53;;;;;;;8.93;4.85;;;18.90;68.90;;;;;;5073648;28;20074;-72
2022/05/25 04:40:04;;;;;;;6.57;5.75;;;19.00;70.10;;;;;;5076457;28;20043;-72
2022/05/25 04:42:30;;;;;;;9.45;4.78;;;19.10;69.40;;;;;;5093637;28;20459;-71
2022/05/25 04:45:00;;;;;;;5.70;4.85;;;19.10;69.50;;;;;;5092352;28;20083;-72
2022/05/25 04:47:34;;;;;;;5.80;4.90;;;19.20;69.50;;;;;;5092447;28;20056;-71
2022/05/25 04:50:00;;;;;;;4.63;4.23;;;19.20;69.40;;;;;;5093540;28;20046;-72
2022/05/25 04:52:27;;;;;;;5.68;4.60;;;19.30;69.50;;;;;;5093493;28;20074;-71
2022/05/25 04:54:53;;;;;;;4.53;3.95;;;19.30;69.40;;;;;;5092286;28;20317;-71
2022/05/25 04:57:20;;;;;;;4.68;4.07;;;19.40;69.30;;;;;;5091914;28;20028;-71
2022/05/25 04:59:50;;;;;;;5.28;4.43;;;19.40;69.30;;;;;;5092028;28;20464;-71
2022/05/25 05:02:16;;;;;;;5.20;4.40;;;19.50;69.10;;;;;;5093110;28;20460;-71
2022/05/25 05:04:43;;;;;;;7.20;6.07;;;19.60;69.20;;;;;;5091940;28;20072;-71
2022/05/25 05:07:09;;;;;;;7.78;5.57;;;19.60;68.70;;;;;;5091457;28;20055;-70
2022/05/25 05:09:36;;;;;;;7.60;5.95;;;19.70;68.50;;;;;;5091723;28;20043;-71
2022/05/25 05:12:02;;;;;;;6.90;5.82;;;19.60;67.90;;;;;;5089813;28;20073;-70
2022/05/25 05:14:28;;;;;;;5.78;5.10;;;19.70;67.80;;;;;;5091690;28;20475;-70
2022/05/25 05:16:56;;;;;;;5.60;4.75;;;19.70;67.80;;;;;;5093197;28;20175;-72
2022/05/25 05:19:21;;;;;;;5.72;5.13;;;19.80;67.80;;;;;;5091717;28;20114;-70
2022/05/25 05:21:47;;;;;;;5.10;4.60;;;19.80;67.70;;;;;;5092790;28;20475;-70
2022/05/25 05:24:13;;;;;;;7.03;5.95;;;19.90;68.00;;;;;;5093394;28;20062;-70
2022/05/25 05:26:39;;;;;;;5.85;5.25;;;19.90;68.00;;;;;;5092769;28;20030;-70
2022/05/25 05:29:04;;;;;;;10.10;6.32;;;20.00;67.80;;;;;;5093175;28;20064;-70
2022/05/25 05:31:30;;;;;;;7.20;5.53;;;20.00;67.30;;;;;;5093172;28;20024;-71
2022/05/25 05:33:56;;;;;;;9.07;5.90;;;20.00;67.20;;;;;;5093277;28;20024;-70
2022/05/25 05:36:27;;;;;;;6.80;6.10;;;20.10;67.10;;;;;;5089277;28;20025;-71
2022/05/25 05:39:03;;;;;;;8.63;6.30;;;20.10;67.60;;;;;;5072802;28;20532;-70
2022/05/25 05:41:42;;;;;;;7.30;6.18;;;20.20;66.70;;;;;;5074665;28;20025;-70
2022/05/25 05:44:12;;;;;;;6.32;5.70;;;20.20;66.40;;;;;;5075253;28;20025;-71
2022/05/25 05:46:41;;;;;;;7.88;6.80;;;20.30;67.20;;;;;;5075208;28;20376;-70
2022/05/25 05:49:10;;;;;;;8.15;6.70;;;20.30;65.60;;;;;;5092056;28;20029;-71
2022/05/25 05:51:37;;;;;;;8.43;5.63;;;20.40;65.90;;;;;;5076504;28;20034;-70
2022/05/25 05:54:03;;;;;;;7.68;5.05;;;20.50;66.30;;;;;;5085918;28;20036;-70
2022/05/25 05:56:32;;;;;;;6.65;5.55;;;20.60;66.70;;;;;;5096684;28;20024;-70
2022/05/25 05:58:58;;;;;;;6.15;5.55;;;20.60;66.50;;;;;;5095353;28;20450;-70
2022/05/25 06:01:24;;;;;;;7.38;6.63;;;20.70;65.50;;;;;;5095229;28;20372;-70
2022/05/25 06:03:50;;;;;;;7.13;6.43;;;20.80;65.30;;;;;;5096618;28;20028;-70
2022/05/25 06:06:16;;;;;;;7.57;6.82;;;20.80;65.60;;;;;;5096224;28;20020;-70
2022/05/25 06:08:46;;;;;;;8.75;7.70;;;20.90;64.60;;;;;;5096078;28;20400;-70
2022/05/25 06:11:13;;;;;;;11.05;8.23;;;20.90;63.60;;;;;;5095346;28;20028;-70
2022/05/25 06:13:40;;;;;;;9.77;8.32;;;20.80;62.50;;;;;;5095278;28;20520;-70
2022/05/25 06:21:34;;;;;;;10.95;8.75;;;20.70;62.80;;;;;;5096332;28;20073;-70
2022/05/25 06:24:01;;;;;;;16.85;9.27;;;20.70;63.00;;;;;;5096213;28;20421;-70
2022/05/25 06:26:30;;;;;;;12.30;8.55;;;20.70;63.50;;;;;;5096391;28;20024;-70
2022/05/25 06:28:56;;;;;;;10.43;7.90;;;20.70;63.30;;;;;;5096223;28;20035;-70
2022/05/25 06:31:22;;;;;;;8.55;7.70;;;20.60;62.80;;;;;;5093807;28;20024;-70
2022/05/25 06:33:48;;;;;;;7.97;6.80;;;20.60;63.10;;;;;;5089592;28;20031;-71
2022/05/25 06:36:26;;;;;;;8.20;7.30;;;20.60;62.80;;;;;;5094817;28;20111;-70
2022/05/25 06:38:53;;;;;;;19.58;8.57;;;20.60;62.60;;;;;;5092503;28;20047;-69
2022/05/25 06:41:18;;;;;;;9.23;8.23;;;20.60;62.80;;;;;;5096208;28;20044;-70
2022/05/25 06:43:45;;;;;;;10.20;7.07;;;20.60;62.50;;;;;;5095642;28;20043;-71
2022/05/25 06:46:13;;;;;;;8.60;6.60;;;20.60;62.20;;;;;;5094861;28;20024;-69
2022/05/25 06:48:39;;;;;;;10.30;5.85;;;20.60;62.30;;;;;;5094512;28;20032;-69
2022/05/25 06:51:23;;;;;;;6.90;6.20;;;20.70;62.80;;;;;;5095859;28;20027;-70
2022/05/25 06:53:49;;;;;;;7.00;5.57;;;20.70;62.10;;;;;;5095304;28;20103;-70
2022/05/25 06:56:16;;;;;;;6.70;5.93;;;20.80;62.40;;;;;;5094699;28;20274;-70
2022/05/25 06:58:43;;;;;;;9.88;6.60;;;20.80;61.70;;;;;;5094277;28;20146;-70
2022/05/25 07:01:09;;;;;;;7.43;6.07;;;20.80;62.00;;;;;;5087713;28;20380;-70
2022/05/25 07:03:35;;;;;;;6.68;5.97;;;20.80;61.70;;;;;;5091256;28;20068;-69
2022/05/25 07:06:06;;;;;;;10.70;5.32;;;20.80;61.20;;;;;;5092441;28;20028;-71
2022/05/25 07:08:32;;;;;;;6.70;5.80;;;20.90;61.70;;;;;;5091493;28;20492;-70
2022/05/25 07:11:00;;;;;;;11.10;6.43;;;21.00;61.30;;;;;;5089198;28;20071;-70
2022/05/25 07:13:27;;;;;;;7.43;5.43;;;21.00;61.00;;;;;;5095265;28;20376;-70
2022/05/25 07:15:58;;;;;;;7.80;5.85;;;21.10;60.90;;;;;;5093491;28;20031;-70
2022/05/25 07:18:26;;;;;;;11.57;6.13;;;21.10;60.20;;;;;;5095083;28;20024;-69
2022/05/25 07:20:52;;;;;;;6.50;4.63;;;21.10;60.20;;;;;;5095121;28;20034;-70
2022/05/25 07:23:19;;;;;;;6.15;5.55;;;21.20;60.80;;;;;;5091349;28;20065;-70
2022/05/25 07:25:46;;;;;;;8.77;5.65;;;21.20;60.50;;;;;;5092899;28;20024;-70
2022/05/25 07:28:12;;;;;;;7.13;5.10;;;21.30;60.80;;;;;;5115064;27;20111;-70
2022/05/25 07:30:38;;;;;;;5.03;4.53;;;21.30;60.20;;;;;;5078625;28;20186;-70
2022/05/25 07:33:05;;;;;;;4.35;3.92;;;21.40;60.80;;;;;;5092244;28;20059;-70
2022/05/25 07:35:31;;;;;;;6.47;4.40;;;21.50;60.10;;;;;;5093146;28;20099;-69
2022/05/25 07:37:58;;;;;;;4.57;3.90;;;21.50;59.30;;;;;;5093622;28;20114;-69
2022/05/25 07:40:31;;;;;;;6.05;4.20;;;21.50;59.50;;;;;;5095029;28;20027;-70
2022/05/25 07:43:02;;;;;;;5.25;3.75;;;21.50;59.00;;;;;;5095018;28;20157;-69
2022/05/25 07:45:29;;;;;;;5.68;4.18;;;21.50;58.60;;;;;;5094966;28;20464;-70
2022/05/25 07:47:55;;;;;;;4.10;3.70;;;21.40;58.40;;;;;;5093608;28;20020;-70
2022/05/25 07:50:21;;;;;;;3.60;2.80;;;21.30;58.30;;;;;;5094741;28;20042;-69
2022/05/25 07:52:50;;;;;;;2.97;2.33;;;21.20;58.20;;;;;;5093539;28;20057;-71
2022/05/25 07:55:16;;;;;;;3.28;2.83;;;21.10;58.40;;;;;;5094508;28;20020;-69
2022/05/25 07:57:42;;;;;;;4.10;2.40;;;21.00;58.40;;;;;;5094522;28;20055;-70
2022/05/25 08:00:09;;;;;;;6.82;2.70;;;20.90;58.80;;;;;;5093299;28;20060;-69
2022/05/25 08:05:44;;;;;;;5.78;2.38;;;20.80;59.50;;;;;;5094650;28;20027;-70
2022/05/25 08:08:25;;;;;;;2.67;2.10;;;20.80;59.50;;;;;;5092851;28;20127;-69
2022/05/25 08:11:11;;;;;;;6.75;2.20;;;20.70;59.90;;;;;;5094370;28;20028;-69
2022/05/25 08:13:40;;;;;;;6.85;2.17;;;20.80;60.30;;;;;;5093099;28;20039;-69
2022/05/25 08:16:06;;;;;;;4.25;2.47;;;20.80;60.20;;;;;;5094201;28;20026;-69
2022/05/25 08:18:32;;;;;;;3.33;2.50;;;20.70;59.90;;;;;;5094178;28;20024;-69
2022/05/25 08:20:58;;;;;;;6.10;2.42;;;20.70;60.00;;;;;;5094315;28;20073;-69
2022/05/25 08:23:24;;;;;;;3.38;2.05;;;20.80;60.00;;;;;;5092990;28;20110;-69
2022/05/25 08:25:49;;;;;;;5.35;2.40;;;20.70;60.10;;;;;;5094492;28;20028;-69
2022/05/25 08:28:15;;;;;;;2.53;2.33;;;20.70;59.90;;;;;;5094057;28;20043;-69
2022/05/25 08:30:43;;;;;;;3.13;2.35;;;20.70;60.10;;;;;;5094101;28;20039;-69
2022/05/25 08:33:09;;;;;;;3.50;2.50;;;20.70;60.10;;;;;;5093726;28;20023;-69
2022/05/25 08:35:35;;;;;;;3.28;2.45;;;20.70;60.50;;;;;;5093837;28;20456;-70
2022/05/25 08:38:01;;;;;;;8.75;3.10;;;20.70;60.50;;;;;;5092745;28;20028;-69
2022/05/25 08:40:30;;;;;;;3.17;2.72;;;20.70;60.50;;;;;;5093502;28;20038;-69
2022/05/25 08:43:12;;;;;;;6.82;2.45;;;20.70;60.40;;;;;;5092652;28;20456;-69
2022/05/25 08:45:52;;;;;;;5.97;2.50;;;20.70;60.60;;;;;;5092704;28;20027;-69
2022/05/25 08:48:20;;;;;;;2.40;2.20;;;20.70;60.60;;;;;;5092490;28;20111;-69
2022/05/25 08:50:51;;;;;;;2.88;2.00;;;20.70;60.50;;;;;;5093621;28;20046;-69
2022/05/25 08:53:20;;;;;;;2.70;2.28;;;20.70;60.40;;;;;;5093737;28;20028;-69
2022/05/25 08:56:11;;;;;;;3.17;2.10;;;20.70;60.50;;;;;;5093679;28;20371;-69
2022/05/25 08:58:53;;;;;;;2.22;1.98;;;20.70;60.60;;;;;;5093895;28;20056;-69
2022/05/25 09:01:54;;;;;;;5.30;2.10;;;20.70;60.50;;;;;;5092327;28;20055;-69
2022/05/25 09:04:42;;;;;;;4.10;2.47;;;20.70;60.50;;;;;;5092449;28;20045;-70
2022/05/25 09:07:17;;;;;;;2.72;2.47;;;20.70;60.00;;;;;;5093282;28;20081;-69
2022/05/25 09:09:46;;;;;;;2.75;2.40;;;20.70;60.10;;;;;;5092135;28;20039;-69
2022/05/25 09:12:24;;;;;;;4.32;2.30;;;20.80;60.50;;;;;;5092340;28;20032;-71
2022/05/25 09:15:05;;;;;;;3.42;2.40;;;20.90;60.10;;;;;;5093587;28;20027;-69
2022/05/25 09:18:15;;;;;;;3.47;2.25;;;21.00;59.70;;;;;;5091894;28;20032;-69
2022/05/25 09:20:48;;;;;;;3.05;1.83;;;21.00;59.40;;;;;;5092323;28;20432;-68
2022/05/25 09:23:15;;;;;;;3.15;1.88;;;21.00;58.80;;;;;;5092613;28;20028;-73
2022/05/25 09:25:44;;;;;;;2.35;1.70;;;20.90;59.00;;;;;;5091717;28;20166;-69
2022/05/25 09:28:21;;;;;;;4.70;2.20;;;20.90;59.20;;;;;;5091848;28;20095;-69
2022/05/25 09:31:00;;;;;;;4.93;1.70;;;21.00;59.20;;;;;;5091774;28;20096;-70
2022/05/25 09:33:39;;;;;;;3.33;2.20;;;21.10;59.40;;;;;;5091506;28;20036;-69
2022/05/25 09:36:16;;;;;;;2.75;1.77;;;21.20;59.80;;;;;;5091751;28;20031;-70
2022/05/25 09:39:00;;;;;;;2.70;1.98;;;21.30;59.50;;;;;;5091947;28;20032;-69
2022/05/25 09:41:29;;;;;;;2.30;1.63;;;21.50;59.40;;;;;;5091995;28;20024;-69
2022/05/25 09:43:58;;;;;;;2.22;1.80;;;21.60;58.40;;;;;;5091747;28;20454;-71
2022/05/25 09:46:47;;;;;;;2.17;1.65;;;21.70;57.70;;;;;;5091908;28;20024;-71
2022/05/25 09:49:44;;;;;;;4.57;1.60;;;21.90;57.90;;;;;;5082934;28;20480;-70
2022/05/25 09:52:22;;;;;;;1.58;1.48;;;21.90;57.20;;;;;;5091965;28;20039;-70
2022/05/25 09:55:01;;;;;;;1.83;1.63;;;22.00;56.80;;;;;;5091675;28;20077;-70
2022/05/25 09:57:51;;;;;;;1.90;1.40;;;22.00;57.00;;;;;;5092891;28;20441;-70
2022/05/25 10:00:21;;;;;;;2.40;1.70;;;22.10;56.90;;;;;;5091751;28;20085;-70
2022/05/25 10:02:51;;;;;;;1.60;1.40;;;22.10;57.10;;;;;;5091648;28;20131;-71
2022/05/25 10:05:25;;;;;;;2.42;1.40;;;22.30;57.30;;;;;;5093051;28;20410;-70
2022/05/25 10:07:58;;;;;;;2.58;1.52;;;22.30;57.10;;;;;;5091145;28;20040;-70
2022/05/25 10:10:43;;;;;;;2.35;1.40;;;22.50;56.60;;;;;;5091437;28;20039;-71
2022/05/25 10:13:19;;;;;;;2.20;1.58;;;22.60;56.40;;;;;;5091691;28;20036;-71
2022/05/25 10:15:51;;;;;;;1.95;1.40;;;22.90;55.90;;;;;;5091345;28;20025;-70
2022/05/25 10:18:36;;;;;;;1.20;1.10;;;23.10;56.00;;;;;;5092926;28;20024;-70
2022/05/25 10:21:03;;;;;;;2.67;1.70;;;23.30;55.30;;;;;;5091759;28;20380;-70
2022/05/25 10:23:30;;;;;;;1.60;1.30;;;23.50;54.20;;;;;;5092830;28;20463;-70
2022/05/25 10:26:06;;;;;;;3.83;2.10;;;23.70;54.00;;;;;;5092749;28;20020;-70
2022/05/25 10:28:43;;;;;;;1.63;1.27;;;23.90;53.70;;;;;;5094029;28;20487;-70
2022/05/25 10:36:56;;;;;;;1.48;1.15;;;24.40;52.20;;;;;;5096569;28;20027;-69
2022/05/25 10:39:51;;;;;;;1.33;1.23;;;24.50;51.50;;;;;;5095211;28;20035;-69
2022/05/25 10:42:32;;;;;;;2.97;1.42;;;24.60;51.60;;;;;;5095147;28;20025;-69
2022/05/25 10:45:32;;;;;;;1.75;1.27;;;24.70;51.60;;;;;;5094931;28;20028;-68
2022/05/25 10:48:07;;;;;;;5.18;1.08;;;24.80;51.80;;;;;;5094927;28;20024;-69
2022/05/25 10:51:04;;;;;;;1.08;0.98;;;24.90;51.00;;;;;;5095890;28;20035;-69
2022/05/25 10:56:52;;;;;;;1.23;1.00;;;25.20;50.40;;;;;;5096159;28;20124;-69
2022/05/25 11:00:09;;;;;;;2.55;1.20;;;25.30;49.20;;;;;;5096323;28;20039;-69
2022/05/25 11:02:50;;;;;;;1.23;1.00;;;25.30;49.10;;;;;;5094553;28;20028;-69
2022/05/25 11:05:39;;;;;;;3.20;1.35;;;25.50;49.20;;;;;;5095584;28;20126;-68
2022/05/25 11:08:34;;;;;;;1.52;1.30;;;25.50;48.10;;;;;;5094279;28;20165;-69
2022/05/25 11:11:47;;;;;;;2.92;1.52;;;25.50;48.60;;;;;;5095895;28;20040;-69
2022/05/25 11:15:00;;;;;;;2.15;1.50;;;25.40;48.10;;;;;;5023031;28;20038;-69
2022/05/25 11:18:17;;;;;;;1.23;1.13;;;25.20;48.90;;;;;;5089198;28;20033;-69
2022/05/25 11:20:51;;;;;;;3.10;1.35;;;25.00;48.20;;;;;;5095640;28;20441;-69
2022/05/25 11:23:23;;;;;;;2.05;1.20;;;24.80;48.20;;;;;;5094172;28;20024;-69
2022/05/25 11:26:31;;;;;;;1.55;1.33;;;24.70;48.10;;;;;;5094191;28;20023;-69
2022/05/25 11:29:43;;;;;;;1.25;1.15;;;24.40;48.80;;;;;;5094148;28;20085;-68
2022/05/25 11:32:36;;;;;;;1.40;1.30;;;24.20;49.10;;;;;;5069888;28;20117;-70
2022/05/25 11:35:11;;;;;;;2.97;1.50;;;24.00;49.50;;;;;;5095281;28;20051;-69
2022/05/25 11:37:52;;;;;;;3.15;1.33;;;24.00;49.90;;;;;;5094064;28;20032;-68
2022/05/25 11:40:57;;;;;;;2.03;1.10;;;23.80;50.20;;;;;;5094591;28;20036;-69
2022/05/25 11:43:29;;;;;;;2.40;1.52;;;23.80;50.20;;;;;;5076798;28;20044;-69
2022/05/25 11:46:11;;;;;;;4.50;1.30;;;23.70;50.60;;;;;;5093652;28;20028;-69
2022/05/25 11:49:18;;;;;;;5.60;1.38;;;23.70;50.80;;;;;;5093632;28;20020;-69
2022/05/25 11:52:05;;;;;;;1.75;1.10;;;23.80;51.10;;;;;;5029252;28;20123;-69
2022/05/25 11:55:07;;;;;;;1.63;1.30;;;23.90;50.70;;;;;;5093651;28;20030;-68
2022/05/25 11:57:44;;;;;;;2.72;1.20;;;24.00;50.20;;;;;;5093669;28;20439;-68
2022/05/25 12:00:38;;;;;;;0.95;0.80;;;23.90;49.10;;;;;;5094866;28;20028;-69
2022/05/25 12:03:38;;;;;;;1.80;1.20;;;23.90;48.90;;;;;;5092348;28;20128;-68
2022/05/25 12:06:41;;;;;;;0.77;0.60;;;23.90;49.10;;;;;;5093049;28;20111;-68
2022/05/25 12:09:34;;;;;;;0.80;0.80;;;23.90;48.50;;;;;;5093093;28;20051;-69
2022/05/25 12:12:03;;;;;;;1.10;0.80;;;23.90;48.70;;;;;;5093221;28;20035;-68
2022/05/25 12:14:58;;;;;;;1.50;0.80;;;23.90;48.50;;;;;;5093284;28;20488;-68
2022/05/25 12:17:47;;;;;;;4.65;1.20;;;23.80;48.50;;;;;;5094245;28;20035;-68
2022/05/25 12:20:27;;;;;;;1.98;0.93;;;23.90;48.30;;;;;;5093069;28;20035;-69
2022/05/25 12:22:55;;;;;;;1.98;1.00;;;23.80;48.10;;;;;;5094024;28;20016;-69
2022/05/25 12:25:22;;;;;;;1.13;0.77;;;23.90;48.50;;;;;;5093980;28;20107;-69
2022/05/25 12:27:52;;;;;;;1.35;0.98;;;23.90;48.80;;;;;;5094079;28;20031;-70
2022/05/25 12:30:39;;;;;;;2.65;1.00;;;23.90;48.60;;;;;;5093853;28;20115;-68
2022/05/25 12:33:09;;;;;;;2.90;0.90;;;24.00;48.10;;;;;;5092587;28;20031;-68
2022/05/25 12:35:36;;;;;;;1.17;0.82;;;24.00;47.10;;;;;;5093908;28;20111;-68
2022/05/25 12:38:07;;;;;;;1.25;1.00;;;24.00;47.90;;;;;;5092526;28;20024;-68
2022/05/25 12:40:45;;;;;;;1.08;0.93;;;24.00;47.60;;;;;;5094002;28;20039;-69
2022/05/25 12:43:37;;;;;;;2.10;1.10;;;24.00;46.80;;;;;;5093865;28;20067;-69
2022/05/25 12:49:01;;;;;;;3.20;0.80;;;24.10;46.60;;;;;;5093502;28;20093;-69
2022/05/25 12:51:44;;;;;;;2.13;1.10;;;24.10;47.00;;;;;;5091764;28;20024;-69
2022/05/25 12:54:24;;;;;;;1.40;1.00;;;24.20;47.00;;;;;;5093830;28;20051;-69
2022/05/25 12:56:52;;;;;;;1.58;1.05;;;24.30;47.10;;;;;;5092216;28;20024;-69
2022/05/25 12:59:33;;;;;;;3.10;1.17;;;24.40;47.20;;;;;;5092294;28;20032;-68
2022/05/25 13:02:19;;;;;;;3.17;0.80;;;24.40;46.90;;;;;;5092004;28;20357;-69
2022/05/25 13:04:55;;;;;;;0.95;0.80;;;24.40;46.40;;;;;;5074745;28;20028;-69
2022/05/25 13:07:33;;;;;;;2.92;1.00;;;24.50;45.90;;;;;;5093449;28;20472;-69
2022/05/25 13:09:59;;;;;;;3.38;0.85;;;24.60;45.80;;;;;;5092151;28;20062;-68
2022/05/25 13:12:44;;;;;;;2.22;1.15;;;24.60;45.20;;;;;;5092039;28;20111;-69
2022/05/25 13:15:36;;;;;;;0.93;0.77;;;24.60;45.50;;;;;;5092100;28;20037;-69
2022/05/25 13:18:02;;;;;;;1.83;1.00;;;24.60;45.30;;;;;;5092093;28;20508;-69
2022/05/25 13:20:28;;;;;;;1.45;1.10;;;24.60;45.00;;;;;;5093404;28;20020;-68
2022/05/25 13:22:56;;;;;;;1.05;0.90;;;24.60;44.90;;;;;;5092100;28;20568;-68
2022/05/25 13:25:43;;;;;;;2.20;0.93;;;24.60;45.50;;;;;;5091915;28;20020;-69
2022/05/25 13:28:33;;;;;;;1.75;1.02;;;24.70;45.60;;;;;;5091893;28;20024;-68
2022/05/25 13:31:08;;;;;;;1.50;1.10;;;24.80;46.00;;;;;;5091657;28;20032;-68
2022/05/25 13:33:43;;;;;;;2.08;1.25;;;24.90;45.20;;;;;;5092115;28;20117;-69
2022/05/25 13:36:22;;;;;;;0.90;0.82;;;25.10;44.70;;;;;;5091711;28;20024;-68
2022/05/25 13:39:03;;;;;;;1.80;1.08;;;25.20;44.90;;;;;;5091940;28;20387;-68
2022/05/25 13:41:33;;;;;;;2.40;0.90;;;25.30;44.40;;;;;;5091717;28;20509;-68
2022/05/25 13:44:09;;;;;;;3.30;1.17;;;25.30;44.40;;;;;;5093140;28;20016;-68
2022/05/25 13:46:41;;;;;;;3.28;0.90;;;25.40;43.50;;;;;;5093225;28;20094;-68
2022/05/25 13:49:24;;;;;;;1.25;0.90;;;25.50;44.40;;;;;;5091640;28;20132;-68
2022/05/25 13:51:51;;;;;;;1.98;1.00;;;25.50;43.20;;;;;;5093425;28;20028;-69